Bookmark and Share
Track history (hours):
 

Cfl Performer

Last reported at 2014-Apr-21 23:19 UTC. Time now 2014-Apr-23 13:04 UTC.
Position N 37°59' W 009°45'.

Length 117 m; draft 5.8 m.

Type: Cargo ship. MMSI: 244989000.

NotesDate/timePositionNaut miles runAvg speedWind from/ knotsBaromVisibWave heightAir tempDewpointWater temp
2014-Apr-21 23:19N 37°59' W 009°45'1110.2
2014-Apr-21 22:12N 37°48' W 009°43'225 7.8
2014-Apr-20 17:33N 35°58' W 005°38'8 7.5
2014-Apr-20 16:33N 35°59' W 005°29'7 7.2
2014-Apr-20 15:33N 36°01' W 005°20'8 7.8
2014-Apr-20 14:33N 36°03' W 005°11'173 8.1
2014-Apr-19 17:09N 36°30' W 001°39'7 8.5
2014-Apr-19 16:19N 36°32' W 001°31'184 9.1
2014-Apr-18 20:07N 36°53' E 002°17'18 9.6
2014-Apr-18 18:13N 36°56' E 002°40'7 9.9
2014-Apr-18 17:34N 36°57' E 002°48'10 9.5
2014-Apr-18 16:31N 36°58' E 003°00'19 9.6
2014-Apr-18 14:33N 37°02' E 003°23'2310.1
2014-Apr-18 12:16N 37°05' E 003°52'810.2
2014-Apr-18 11:30N 37°05' E 004°02'1011.2
2014-Apr-18 10:34N 37°06' E 004°15'1010.3
2014-Apr-18 09:33N 37°07' E 004°28'393 9.5
2014-Apr-16 16:18N 37°02' E 012°41'57 9.8
2014-Apr-16 10:32N 36°42' E 013°47'1110.2
2014-Apr-16 09:27N 36°39' E 014°00'1010.5
2014-Apr-16 08:32N 36°36' E 014°12'  
2014-Apr-13 14:09N 39°46' E 025°46'  

Dump ship's entire track history

sailing weather and tide predictions

Cfl Performer — PHLY — position and weather